Time;durP1;ratioP1;P1;durP2;ratioP2;P2;SDS_P1;SDS_P2;PMS_P1;PMS_P2;Temp;Humidity;BMP_temperature;BMP_pressure;BME280_temperature;BME280_humidity;BME280_pressure;Samples;Min_cycle;Max_cycle;Signal;HPM_P1;HPM_P2
2022/09/19 00:01:58;;;;;;;3.78;1.10;;;;;;;26.84;33.37;101125.72;143718;575;53004;-88
2022/09/19 00:04:32;;;;;;;4.40;1.35;;;;;;;26.81;32.89;101120.84;143728;583;48002;-87
2022/09/19 00:07:02;;;;;;;4.65;1.30;;;;;;;26.77;33.02;101123.31;143733;575;47004;-89
2022/09/19 00:09:46;;;;;;;6.43;1.20;;;;;;;26.79;32.57;101121.09;143737;574;45928;-89
2022/09/19 00:12:18;;;;;;;2.62;1.10;;;;;;;26.82;33.11;101117.78;143735;608;46006;-89
2022/09/19 00:14:47;;;;;;;4.95;1.80;;;;;;;26.80;33.17;101124.72;143733;572;49002;-89
2022/09/19 00:17:16;;;;;;;4.57;1.25;;;;;;;26.76;33.29;101128.03;143740;598;45010;-89
2022/09/19 00:19:43;;;;;;;4.57;1.15;;;;;;;26.70;33.20;101131.97;143736;583;45012;-89
2022/09/19 00:22:10;;;;;;;9.23;1.30;;;;;;;26.68;33.54;101125.13;143734;601;48006;-88
2022/09/19 00:24:48;;;;;;;3.42;1.50;;;;;;;26.63;33.16;101135.09;143738;567;45011;-87
2022/09/19 00:27:22;;;;;;;4.15;1.10;;;;;;;26.58;33.11;101132.41;143716;573;53008;-87
2022/09/19 00:29:49;;;;;;;5.72;1.17;;;;;;;26.56;33.80;101133.84;143733;670;47012;-87
2022/09/19 00:32:21;;;;;;;4.18;1.35;;;;;;;26.50;34.29;101133.09;143736;576;46026;-88
2022/09/19 00:34:52;;;;;;;4.78;1.40;;;;;;;26.44;34.74;101134.28;143738;577;46021;-86
2022/09/19 00:37:20;;;;;;;2.50;1.10;;;;;;;26.37;34.87;101131.87;143737;613;46005;-87
2022/09/19 00:39:50;;;;;;;2.72;1.30;;;;;;;26.35;35.21;101133.31;143732;577;51004;-88
2022/09/19 00:42:28;;;;;;;6.05;2.17;;;;;;;26.33;34.81;101133.59;143737;608;45012;-87
2022/09/19 00:45:14;;;;;;;3.35;1.00;;;;;;;26.29;34.55;101136.13;143739;606;45010;-88
2022/09/19 00:47:47;;;;;;;5.28;1.52;;;;;;;26.24;34.34;101144.44;143741;591;45010;-87
2022/09/19 00:50:24;;;;;;;5.20;1.10;;;;;;;26.22;34.90;101132.09;143733;563;47006;-90
2022/09/19 00:53:04;;;;;;;2.78;1.12;;;;;;;26.20;34.64;101131.56;143737;599;46004;-90
2022/09/19 00:55:36;;;;;;;4.45;1.48;;;;;;;26.16;35.23;101136.84;143728;578;49009;-88
2022/09/19 00:58:19;;;;;;;5.00;1.20;;;;;;;26.11;34.82;101129.47;143734;614;47006;-87
2022/09/19 01:00:46;;;;;;;5.10;1.30;;;;;;;26.11;35.04;101137.72;143725;620;50006;-86
2022/09/19 01:03:14;;;;;;;4.22;1.20;;;;;;;26.11;34.99;101139.63;143738;575;46004;-89
2022/09/19 01:06:07;;;;;;;1.80;0.90;;;;;;;26.10;34.92;101136.06;143736;616;47008;-86
2022/09/19 01:09:23;;;;;;;4.03;1.45;;;;;;;26.09;35.13;101131.66;143741;608;45011;-86
2022/09/19 01:12:47;;;;;;;5.55;1.40;;;;;;;26.09;35.75;101128.06;143733;574;47012;-86
2022/09/19 01:15:38;;;;;;;5.40;1.40;;;;;;;26.06;35.88;101134.16;143739;597;45012;-88
2022/09/19 01:18:07;;;;;;;4.95;1.55;;;;;;;26.03;36.23;101139.13;143734;567;47002;-86
2022/09/19 01:24:23;;;;;;;5.20;1.50;;;;;;;26.03;33.46;101147.41;143734;604;46929;-87
2022/09/19 01:27:33;;;;;;;4.05;1.00;;;;;;;26.04;33.60;101128.97;143738;577;46004;-89
2022/09/19 01:30:05;;;;;;;3.85;1.17;;;;;;;26.03;34.11;101133.62;143739;567;46008;-88
2022/09/19 01:32:44;;;;;;;3.75;1.92;;;;;;;26.01;34.81;101130.38;143740;579;46016;-85
2022/09/19 01:35:14;;;;;;;2.58;1.10;;;;;;;26.03;34.09;101136.38;143736;652;47012;-87
2022/09/19 01:37:47;;;;;;;2.97;1.35;;;;;;;26.01;33.60;101138.63;143739;576;46004;-87
2022/09/19 01:40:17;;;;;;;6.07;1.27;;;;;;;26.00;33.23;101138.91;143730;577;47009;-89
2022/09/19 01:42:55;;;;;;;3.05;1.00;;;;;;;26.01;33.71;101137.81;143740;598;46002;-88
2022/09/19 01:45:24;;;;;;;3.87;1.60;;;;;;;25.95;34.19;101141.72;143739;600;45016;-86
2022/09/19 01:48:23;;;;;;;2.85;1.30;;;;;;;25.92;32.48;101129.38;143739;567;45012;-86
2022/09/19 01:51:25;;;;;;;9.02;1.30;;;;;;;25.92;33.70;101134.06;143738;661;46008;-87
2022/09/19 01:54:56;;;;;;;2.40;1.08;;;;;;;25.91;33.39;101136.00;143741;575;46006;-88
2022/09/19 01:58:07;;;;;;;3.47;1.10;;;;;;;25.86;32.53;101128.63;143737;585;46010;-86
2022/09/19 02:01:13;;;;;;;;;;;;;;;;;;;;;
2022/09/19 02:04:04;;;;;;;6.62;1.60;;;;;;;25.81;33.83;101136.13;143736;632;46008;-87
2022/09/19 02:07:03;;;;;;;5.82;1.10;;;;;;;25.76;34.19;101142.50;143741;588;45010;-84
2022/09/19 02:10:08;;;;;;;3.42;0.80;;;;;;;25.71;34.43;101140.59;143725;627;48010;-85
2022/09/19 02:12:39;;;;;;;2.53;1.00;;;;;;;25.68;35.02;101135.69;143739;582;45012;-87
2022/09/19 02:15:12;;;;;;;4.32;1.40;;;;;;;25.69;35.60;101144.75;143737;582;46008;-87
2022/09/19 02:18:08;;;;;;;2.60;1.20;;;;;;;25.69;35.78;101142.81;143736;710;47006;-86
2022/09/19 02:20:45;;;;;;;7.37;1.30;;;;;;;25.67;35.77;101138.72;143738;603;46004;-85
2022/09/19 02:23:43;;;;;;;4.62;1.35;;;;;;;25.63;36.44;101149.50;143733;615;47013;-86
2022/09/19 02:26:11;;;;;;;2.40;1.17;;;;;;;25.61;36.75;101151.72;143724;640;49009;-87
2022/09/19 02:28:54;;;;;;;4.80;1.50;;;;;;;25.62;36.96;101144.28;143738;580;48008;-86
2022/09/19 02:31:27;;;;;;;5.20;1.42;;;;;;;25.58;36.75;101139.38;143737;577;46011;-88
2022/09/19 02:34:06;;;;;;;2.55;1.25;;;;;;;25.59;36.67;101148.44;143734;627;48004;-87
2022/09/19 02:37:00;;;;;;;5.93;1.52;;;;;;;25.58;36.71;101144.88;143739;569;45010;-86
2022/09/19 02:39:45;;;;;;;6.10;1.33;;;;;;;25.56;37.25;101152.59;143730;582;48004;-88
2022/09/19 02:42:49;;;;;;;4.57;1.45;;;;;;;25.54;38.09;101152.06;143739;625;45012;-88
2022/09/19 02:45:32;;;;;;;5.80;1.57;;;;;;;25.53;37.40;101147.66;143739;592;45013;-88
2022/09/19 02:48:34;;;;;;;2.20;1.42;;;;;;;25.55;37.96;101147.38;143732;589;46008;-87
2022/09/19 02:51:29;;;;;;;3.28;1.30;;;;;;;25.51;38.03;101151.78;143737;590;47006;-86
2022/09/19 02:54:08;;;;;;;3.22;1.30;;;;;;;25.50;37.61;101150.19;143737;641;45924;-86
2022/09/19 02:56:38;;;;;;;4.10;1.80;;;;;;;25.46;38.00;101149.91;143736;692;47004;-87
2022/09/19 02:59:17;;;;;;;4.75;1.50;;;;;;;25.44;37.74;101149.37;143731;684;48006;-89
2022/09/19 03:02:02;;;;;;;;;;;;;;;;;;;;;
2022/09/19 03:04:39;;;;;;;4.10;1.45;;;;;;;25.35;39.45;101149.16;143717;720;57006;-87
2022/09/19 03:07:28;;;;;;;2.78;1.45;;;;;;;25.33;40.29;101154.12;143734;668;47013;-87
2022/09/19 03:10:17;;;;;;;5.10;2.08;;;;;;;25.37;40.62;101155.19;143729;677;49002;-87
2022/09/19 03:13:24;;;;;;;6.72;1.77;;;;;;;25.37;40.86;101154.38;143739;587;46006;-86
2022/09/19 03:16:15;;;;;;;4.37;1.55;;;;;;;25.40;40.54;101156.56;143731;721;49004;-88
2022/09/19 03:18:56;;;;;;;7.03;2.15;;;;;;;25.39;40.28;101152.97;143731;718;48004;-87
2022/09/19 03:21:26;;;;;;;7.93;2.00;;;;;;;25.45;40.00;101151.03;143736;589;45925;-86
2022/09/19 03:23:58;;;;;;;5.43;1.73;;;;;;;25.43;40.14;101158.75;143741;712;45010;-88
2022/09/19 03:26:32;;;;;;;3.78;1.70;;;;;;;25.42;39.11;101159.84;143735;617;47010;-85
2022/09/19 03:29:03;;;;;;;7.75;2.08;;;;;;;25.44;38.91;101160.38;143719;593;62004;-89
2022/09/19 03:31:32;;;;;;;3.45;1.70;;;;;;;25.43;38.75;101153.25;143729;587;47006;-88
2022/09/19 03:34:09;;;;;;;3.78;1.48;;;;;;;25.38;37.64;101165.09;143741;645;45010;-86
2022/09/19 03:36:42;;;;;;;3.45;1.25;;;;;;;25.33;38.00;101158.81;143733;619;46010;-87
2022/09/19 03:39:12;;;;;;;6.10;1.42;;;;;;;25.30;38.53;101168.47;143737;569;46004;-86
2022/09/19 03:41:44;;;;;;;4.07;1.80;;;;;;;25.28;38.89;101171.50;143736;675;46008;-86
2022/09/19 03:44:12;;;;;;;8.43;1.98;;;;;;;25.27;37.40;101175.34;143729;588;51004;-86
2022/09/19 03:46:43;;;;;;;4.40;2.17;;;;;;;25.23;36.97;101174.31;143735;576;46010;-85
2022/09/19 03:49:16;;;;;;;5.82;1.92;;;;;;;25.20;37.07;101180.38;143735;569;46931;-87
2022/09/19 03:51:46;;;;;;;6.75;1.67;;;;;;;25.20;38.60;101174.88;143739;622;45010;-85
2022/09/19 03:54:16;;;;;;;7.05;1.87;;;;;;;25.16;39.63;101175.69;143738;664;47002;-85
2022/09/19 03:56:53;;;;;;;6.50;1.70;;;;;;;25.14;38.77;101178.75;143738;579;46010;-86
2022/09/19 03:59:30;;;;;;;6.60;2.30;;;;;;;25.07;39.17;101184.56;143734;590;49004;-88
2022/09/19 04:01:58;;;;;;;3.62;1.52;;;;;;;25.05;37.72;101186.78;143738;724;46006;-87
2022/09/19 04:04:28;;;;;;;6.53;1.60;;;;;;;25.06;36.57;101185.69;143740;606;45010;-86
2022/09/19 04:06:55;;;;;;;8.85;1.87;;;;;;;25.04;36.46;101192.56;143739;577;45012;-83
2022/09/19 04:09:22;;;;;;;7.05;1.52;;;;;;;25.02;34.60;101189.28;143735;646;47006;-85
2022/09/19 04:11:55;;;;;;;5.12;1.10;;;;;;;25.04;33.56;101203.56;143739;605;45020;-86
2022/09/19 04:14:23;;;;;;;;;;;;;;;25.03;33.77;101205.47;143744;984;46002;-86
2022/09/19 04:16:52;;;;;;;3.78;1.20;;;;;;;25.04;33.54;101201.62;143743;569;45011;-88
2022/09/19 04:19:21;;;;;;;3.05;1.20;;;;;;;25.03;33.40;101205.47;143735;620;46008;-88
2022/09/19 04:21:59;;;;;;;4.30;1.20;;;;;;;25.05;33.93;101214.25;143731;583;46006;-86
2022/09/19 04:24:34;;;;;;;3.15;1.15;;;;;;;25.00;33.19;101219.78;143734;592;48006;-85
2022/09/19 04:27:06;;;;;;;3.70;1.27;;;;;;;24.97;32.65;101215.69;143737;627;46010;-85
2022/09/19 04:30:10;;;;;;;;;;;;;;;;;;;;;
2022/09/19 04:32:43;;;;;;;3.83;1.40;;;;;;;24.95;33.31;101226.13;143737;653;46010;-86
2022/09/19 04:35:11;;;;;;;2.90;1.10;;;;;;;24.95;32.71;101222.59;143736;637;46004;-87
2022/09/19 04:37:39;;;;;;;6.22;1.62;;;;;;;24.97;32.11;101226.69;143729;579;54010;-91
2022/09/19 04:40:14;;;;;;;2.75;1.02;;;;;;;24.99;31.74;101229.13;143736;614;47004;-86
2022/09/19 04:42:42;;;;;;;3.53;1.35;;;;;;;25.00;31.26;101229.97;143738;601;45929;-88
2022/09/19 04:45:12;;;;;;;6.57;1.37;;;;;;;24.97;31.58;101231.38;143735;594;47004;-88
2022/09/19 04:47:40;;;;;;;2.33;1.10;;;;;;;25.02;31.36;101239.56;143731;664;47010;-89
2022/09/19 04:50:10;;;;;;;4.50;1.33;;;;;;;25.05;31.61;101243.69;143737;578;47002;-86
2022/09/19 04:52:47;;;;;;;2.50;1.25;;;;;;;25.04;30.92;101239.28;143735;682;47006;-87
2022/09/19 04:55:14;;;;;;;2.72;1.10;;;;;;;25.02;31.34;101236.00;143740;639;46002;-86
2022/09/19 04:57:42;;;;;;;4.87;1.30;;;;;;;25.02;32.45;101236.00;143737;584;46010;-84
2022/09/19 05:00:12;;;;;;;4.95;1.30;;;;;;;25.01;32.93;101226.13;143739;682;45012;-86
2022/09/19 05:02:42;;;;;;;4.95;1.60;;;;;;;25.03;33.03;101232.16;143723;597;51000;-88
2022/09/19 05:05:15;;;;;;;7.75;2.28;;;;;;;24.98;34.32;101232.97;143739;659;46004;-88
2022/09/19 05:07:51;;;;;;;5.62;1.48;;;;;;;25.02;33.33;101236.81;143737;589;46008;-85
2022/09/19 05:10:22;;;;;;;3.17;1.35;;;;;;;25.05;33.14;101236.25;143735;618;46004;-85
2022/09/19 05:13:03;;;;;;;2.83;1.17;;;;;;;25.10;32.17;101238.13;143737;575;45010;-84
2022/09/19 05:15:30;;;;;;;12.23;1.75;;;;;;;25.09;33.07;101242.84;143739;683;45010;-86
2022/09/19 05:18:00;;;;;;;7.97;1.83;;;;;;;25.12;34.29;101246.94;143733;613;47004;-87
2022/09/19 05:20:31;;;;;;;5.95;1.77;;;;;;;25.14;35.04;101244.72;143736;590;48008;-89
2022/09/19 05:23:01;;;;;;;8.40;2.08;;;;;;;25.17;35.58;101246.06;143738;605;45928;-87
2022/09/19 05:25:30;;;;;;;2.97;1.20;;;;;;;25.20;35.83;101248.25;143739;579;46002;-86
2022/09/19 05:28:05;;;;;;;3.75;1.33;;;;;;;25.22;36.57;101249.63;143736;604;46010;-87
2022/09/19 05:30:37;;;;;;;4.80;1.23;;;;;;;25.25;36.58;101253.72;143724;602;48004;-86
2022/09/19 05:33:14;;;;;;;6.68;1.60;;;;;;;25.26;37.52;101244.38;143734;704;45928;-89
2022/09/19 05:35:44;;;;;;;5.45;1.70;;;;;;;25.26;36.62;101258.94;143731;596;47002;-87
2022/09/19 05:38:24;;;;;;;4.10;1.60;;;;;;;25.34;35.12;101257.50;143707;654;60002;-89
2022/09/19 05:40:54;;;;;;;6.12;1.85;;;;;;;25.41;34.78;101249.75;143724;592;49004;-87
2022/09/19 05:43:26;;;;;;;5.50;1.92;;;;;;;25.46;35.80;101248.94;143733;658;46006;-85
2022/09/19 05:46:01;;;;;;;6.93;1.48;;;;;;;25.51;35.34;101250.81;143739;592;45010;-87
2022/09/19 05:48:37;;;;;;;9.10;1.70;;;;;;;25.52;36.00;101250.53;143734;594;46019;-87
2022/09/19 05:51:04;;;;;;;7.82;2.40;;;;;;;25.53;36.40;101252.19;143735;654;45933;-87
2022/09/19 05:56:25;;;;;;;6.35;2.03;;;;;;;25.55;36.69;101249.12;143723;572;54002;-87
2022/09/19 05:58:55;;;;;;;7.15;1.75;;;;;;;25.57;36.03;101249.66;143736;662;46002;-89
2022/09/19 06:01:24;;;;;;;7.78;1.85;;;;;;;25.62;36.01;101260.63;143735;575;45934;-86
2022/09/19 06:03:54;;;;;;;11.88;2.42;;;;;;;25.62;36.18;101252.38;143736;613;45928;-87
2022/09/19 06:06:27;;;;;;;12.30;2.22;;;;;;;25.65;35.93;101257.31;143719;588;60000;-85
2022/09/19 06:08:59;;;;;;;8.50;1.37;;;;;;;25.67;36.09;101252.34;143735;699;45932;-86
2022/09/19 06:11:27;;;;;;;4.18;1.65;;;;;;;25.70;35.42;101249.00;143732;573;47004;-86
2022/09/19 06:16:42;;;;;;;6.20;1.37;;;;;;;25.76;35.69;101252.56;143735;572;47011;-85
2022/09/19 06:19:09;;;;;;;7.37;1.60;;;;;;;25.78;34.82;101258.56;143736;572;45931;-84
2022/09/19 06:21:39;;;;;;;8.77;1.50;;;;;;;25.81;34.26;101255.25;143723;568;49004;-87
2022/09/19 06:24:10;;;;;;;4.28;1.23;;;;;;;25.85;34.25;101258.25;143735;605;45928;-85
2022/09/19 06:26:37;;;;;;;5.15;1.10;;;;;;;25.92;32.91;101257.91;143734;698;47002;-85
2022/09/19 06:29:06;;;;;;;4.60;1.10;;;;;;;25.99;32.80;101253.72;143728;682;48010;-85
2022/09/19 06:31:36;;;;;;;5.85;1.37;;;;;;;26.08;32.94;101248.38;143730;632;47004;-86
2022/09/19 06:34:03;;;;;;;4.32;2.12;;;;;;;26.17;32.97;101254.91;143733;578;46006;-85
2022/09/19 06:36:30;;;;;;;6.70;3.78;;;;;;;26.22;32.64;101251.28;143737;586;46006;-87
2022/09/19 06:38:57;;;;;;;3.92;1.42;;;;;;;26.32;34.17;101253.09;143731;567;46932;-85
2022/09/19 06:41:33;;;;;;;4.12;1.10;;;;;;;26.38;32.74;101256.66;143737;640;45012;-87
2022/09/19 06:44:04;;;;;;;1.87;1.17;;;;;;;26.41;32.15;101250.53;143737;629;45010;-87
2022/09/19 06:46:33;;;;;;;3.10;1.42;;;;;;;26.33;32.82;101252.84;143739;736;45010;-83
2022/09/19 06:49:01;;;;;;;2.87;1.40;;;;;;;26.16;32.35;101252.47;143734;724;46004;-84
2022/09/19 06:51:29;;;;;;;2.85;1.00;;;;;;;26.07;32.71;101256.91;143735;567;46004;-83
2022/09/19 06:53:59;;;;;;;3.35;1.17;;;;;;;25.95;33.01;101255.38;143737;584;45010;-83
2022/09/19 06:56:26;;;;;;;2.70;1.50;;;;;;;25.92;33.26;101260.66;143737;583;47000;-83
2022/09/19 06:58:56;;;;;;;1.92;0.90;;;;;;;25.88;33.14;101255.72;143727;615;47004;-83
2022/09/19 07:01:33;;;;;;;2.33;1.12;;;;;;;26.02;34.22;101263.31;143735;632;46002;-84
2022/09/19 07:04:06;;;;;;;4.25;1.37;;;;;;;26.13;33.68;101264.06;143735;670;46002;-83
2022/09/19 07:06:36;;;;;;;4.10;1.55;;;;;;;26.16;34.54;101258.78;143729;705;48003;-84
2022/09/19 07:09:04;;;;;;;5.25;1.37;;;;;;;26.17;34.11;101268.69;143701;654;56008;-84
2022/09/19 07:11:31;;;;;;;3.55;1.08;;;;;;;26.15;33.82;101270.09;143734;630;46010;-84
2022/09/19 07:13:59;;;;;;;5.25;1.87;;;;;;;26.17;34.85;101276.12;143731;751;47006;-83
2022/09/19 07:16:29;;;;;;;5.43;1.15;;;;;;;26.17;34.83;101268.69;143737;611;47004;-82
2022/09/19 07:19:05;;;;;;;2.08;1.10;;;;;;;26.23;34.72;101263.94;143731;844;49008;-84
2022/09/19 07:21:33;;;;;;;2.95;1.00;;;;;;;26.15;34.25;101273.66;143736;679;47002;-82
2022/09/19 07:24:06;;;;;;;2.15;1.10;;;;;;;26.18;33.92;101270.31;143734;628;46006;-85
2022/09/19 07:26:38;;;;;;;2.62;1.10;;;;;;;26.25;34.01;101281.00;143737;676;47002;-83
2022/09/19 07:29:05;;;;;;;5.32;1.23;;;;;;;26.25;35.02;101278.25;143735;635;46010;-82
2022/09/19 07:31:32;;;;;;;4.90;1.12;;;;;;;26.31;35.91;101273.50;143737;601;45012;-82
2022/09/19 07:33:59;;;;;;;2.75;0.90;;;;;;;26.24;36.41;101268.34;143733;710;46022;-83
2022/09/19 07:36:27;;;;;;;2.60;1.10;;;;;;;26.21;36.85;101268.91;143739;697;45010;-82
2022/09/19 07:38:57;;;;;;;2.05;1.10;;;;;;;26.25;36.78;101272.72;143729;668;47010;-83
2022/09/19 07:41:23;;;;;;;3.50;1.00;;;;;;;26.30;37.17;101264.44;143732;620;50002;-83
2022/09/19 07:43:50;;;;;;;4.53;1.10;;;;;;;26.41;37.33;101281.66;143731;734;47007;-84
2022/09/19 07:46:17;;;;;;;2.53;1.17;;;;;;;26.48;37.25;101284.06;143737;736;47002;-81
2022/09/19 07:48:53;;;;;;;5.65;1.45;;;;;;;26.61;37.06;101275.09;143725;683;55008;-83
2022/09/19 07:51:20;;;;;;;3.72;1.27;;;;;;;26.81;36.54;101275.16;143721;573;48008;-81
2022/09/19 07:53:49;;;;;;;3.45;1.60;;;;;;;27.02;36.00;101286.72;143734;617;46006;-82
2022/09/19 07:56:16;;;;;;;5.40;1.30;;;;;;;26.67;36.51;101275.03;143735;583;47004;-82
2022/09/19 07:58:43;;;;;;;7.30;1.50;;;;;;;26.42;36.89;101279.72;143734;733;46010;-82
2022/09/19 08:01:13;;;;;;;2.87;1.50;;;;;;;26.37;37.39;101277.03;143725;595;52008;-81
2022/09/19 08:03:44;;;;;;;4.37;1.45;;;;;;;26.39;37.35;101275.62;143735;568;45930;-82
2022/09/19 08:06:12;;;;;;;3.95;1.35;;;;;;;26.48;37.11;101264.78;143739;710;45010;-81
2022/09/19 08:08:39;;;;;;;7.10;1.00;;;;;;;26.82;36.66;101269.34;143735;592;47010;-82
2022/09/19 08:11:06;;;;;;;4.82;1.35;;;;;;;27.12;36.34;101261.75;143734;609;47002;-83
2022/09/19 08:13:33;;;;;;;3.97;1.30;;;;;;;27.47;36.12;101267.87;143729;702;51017;-82
2022/09/19 08:16:01;;;;;;;3.50;1.48;;;;;;;27.38;35.24;101275.19;143736;579;46006;-82
2022/09/19 08:18:28;;;;;;;2.97;1.20;;;;;;;26.97;36.35;101278.53;143736;566;45929;-81
2022/09/19 08:20:56;;;;;;;6.22;1.25;;;;;;;26.66;36.46;101287.16;143734;602;47002;-81
2022/09/19 08:23:23;;;;;;;3.25;1.33;;;;;;;26.40;36.68;101277.25;143722;654;54004;-82
2022/09/19 08:25:52;;;;;;;6.95;1.52;;;;;;;26.45;37.09;101282.72;143734;610;49002;-81
2022/09/19 08:28:20;;;;;;;3.37;1.25;;;;;;;26.45;36.71;101277.22;143732;593;49004;-81
2022/09/19 08:30:48;;;;;;;4.35;0.95;;;;;;;26.72;35.77;101274.97;143739;568;45012;-82
2022/09/19 08:33:15;;;;;;;3.15;1.00;;;;;;;26.70;35.62;101280.75;143734;588;46006;-81
2022/09/19 08:35:43;;;;;;;6.47;1.75;;;;;;;26.51;35.86;101272.47;143732;569;47002;-81
2022/09/19 08:38:12;;;;;;;8.23;1.65;;;;;;;26.66;36.12;101284.41;143737;607;45010;-82
2022/09/19 08:41:24;;;;;;;8.10;1.40;;;;;;;26.96;35.12;101279.62;143731;713;48002;-82
2022/09/19 08:44:20;;;;;;;6.50;1.58;;;;;;;27.24;34.56;101273.19;143726;577;48018;-81
2022/09/19 08:47:13;;;;;;;5.57;1.37;;;;;;;27.18;34.31;101277.13;143736;628;48005;-81
2022/09/19 08:50:11;;;;;;;2.75;1.33;;;;;;;27.15;34.48;101269.44;143735;697;46004;-82
2022/09/19 08:52:48;;;;;;;5.68;0.90;;;;;;;27.35;34.34;101262.81;143735;724;46004;-83
2022/09/19 08:55:23;;;;;;;4.35;1.33;;;;;;;27.17;34.40;101261.69;143727;663;52927;-79
2022/09/19 08:58:07;;;;;;;2.12;1.02;;;;;;;27.19;34.24;101256.72;143737;640;46011;-82
2022/09/19 09:00:43;;;;;;;4.95;1.35;;;;;;;27.24;33.14;101244.78;143735;578;45925;-83
2022/09/19 09:03:41;;;;;;;3.08;1.20;;;;;;;27.54;34.02;101250.94;143729;580;48004;-84
2022/09/19 09:06:34;;;;;;;3.30;1.12;;;;;;;27.72;33.28;101248.44;143734;670;47009;-82
2022/09/19 09:09:31;;;;;;;3.97;1.35;;;;;;;27.58;33.13;101254.75;143735;575;47004;-83
2022/09/19 09:12:19;;;;;;;2.28;1.05;;;;;;;27.35;34.03;101242.69;143727;669;47011;-84
2022/09/19 09:15:20;;;;;;;4.18;1.40;;;;;;;27.49;33.76;101238.06;143735;740;46004;-84
2022/09/19 09:18:18;;;;;;;5.57;2.12;;;;;;;27.30;33.59;101231.72;143735;592;47008;-84
2022/09/19 09:21:16;;;;;;;1.12;0.80;;;;;;;27.19;33.45;101228.31;143732;569;47005;-84
2022/09/19 09:23:51;;;;;;;2.67;1.80;;;;;;;27.18;32.07;101226.69;143735;594;46012;-82
2022/09/19 09:26:23;;;;;;;5.20;2.17;;;;;;;27.48;33.53;101217.13;143736;600;45930;-81
2022/09/19 09:29:12;;;;;;;6.57;1.52;;;;;;;27.69;32.84;101217.59;143745;629;45924;-80
2022/09/19 09:32:01;;;;;;;4.22;1.25;;;;;;;27.81;32.30;101228.12;143759;566;46004;-79
2022/09/19 09:34:35;;;;;;;4.18;1.40;;;;;;;27.80;32.04;101214.66;143734;676;49012;-80
2022/09/19 09:37:42;;;;;;;3.20;1.83;;;;;;;27.92;32.38;101214.97;143753;588;51008;-82
2022/09/19 09:44:15;;;;;;;3.92;1.30;;;;;;;28.22;30.92;101198.97;143745;605;46000;-79
2022/09/19 09:47:14;;;;;;;3.37;1.10;;;;;;;28.14;30.58;101189.47;143742;584;46010;-80
2022/09/19 09:49:41;;;;;;;3.05;0.98;;;;;;;28.09;30.14;101195.06;143742;603;46002;-81
2022/09/19 09:52:33;;;;;;;3.08;0.95;;;;;;;28.22;29.82;101195.38;143727;567;53004;-81
2022/09/19 09:58:41;;;;;;;6.25;1.87;;;;;;;28.36;30.99;101198.16;143740;582;46008;-81
2022/09/19 10:04:47;;;;;;;4.75;1.00;;;;;;;28.52;30.44;101193.94;143736;608;45921;-81
2022/09/19 10:07:58;;;;;;;2.00;0.90;;;;;;;28.57;30.90;101202.13;143745;579;46000;-80
2022/09/19 10:10:28;;;;;;;2.92;1.02;;;;;;;28.41;30.50;101193.31;143743;590;45927;-81
2022/09/19 10:13:27;;;;;;;3.03;1.23;;;;;;;28.48;30.51;101195.66;143743;616;46002;-81
2022/09/19 10:16:02;;;;;;;3.05;1.50;;;;;;;28.50;30.69;101190.66;143744;598;45010;-81
2022/09/19 10:18:39;;;;;;;5.20;1.15;;;;;;;28.54;30.03;101185.31;143745;628;45014;-81
2022/09/19 10:21:06;;;;;;;5.18;1.75;;;;;;;28.61;30.61;101182.97;143738;573;47011;-81
2022/09/19 10:23:34;;;;;;;3.75;1.48;;;;;;;28.76;30.33;101186.53;143739;611;47011;-81
2022/09/19 10:26:15;;;;;;;2.15;1.30;;;;;;;28.88;30.68;101190.41;143740;608;47006;-84
2022/09/19 10:28:51;;;;;;;2.25;1.20;;;;;;;29.00;31.01;101181.56;143743;592;46006;-82
2022/09/19 10:31:39;;;;;;;5.15;1.30;;;;;;;29.16;29.07;101175.66;143737;588;45010;-81
2022/09/19 10:34:30;;;;;;;6.93;1.30;;;;;;;29.25;29.14;101170.97;143739;575;46004;-83
2022/09/19 10:37:02;;;;;;;3.47;1.52;;;;;;;29.24;29.50;101172.13;143743;588;46000;-83
2022/09/19 10:39:29;;;;;;;3.40;1.20;;;;;;;29.21;28.55;101170.00;143743;713;47004;-83
2022/09/19 10:41:56;;;;;;;3.25;0.82;;;;;;;29.30;28.99;101168.09;143741;587;46002;-85
2022/09/19 10:44:27;;;;;;;3.15;1.40;;;;;;;29.25;28.80;101164.66;143742;601;46002;-82
2022/09/19 10:46:58;;;;;;;2.67;1.30;;;;;;;29.04;29.67;101162.37;143731;613;48000;-83
2022/09/19 10:49:28;;;;;;;5.90;1.70;;;;;;;29.09;29.58;101155.91;143745;578;46002;-82
2022/09/19 10:51:59;;;;;;;3.25;2.12;;;;;;;29.12;28.42;101150.56;143742;655;46010;-83
2022/09/19 10:54:40;;;;;;;3.03;1.50;;;;;;;29.10;28.94;101149.25;143737;577;48002;-82
2022/09/19 10:57:40;;;;;;;5.82;1.40;;;;;;;29.07;29.09;101142.41;143708;579;61923;-82
2022/09/19 11:00:44;;;;;;;4.72;1.30;;;;;;;28.96;28.97;101141.81;143744;572;46002;-83
2022/09/19 11:03:39;;;;;;;5.07;1.50;;;;;;;28.95;28.07;101133.81;143731;612;52004;-77
2022/09/19 11:06:13;;;;;;;3.75;1.70;;;;;;;29.03;28.85;101125.59;143743;568;45930;-83
2022/09/19 11:08:52;;;;;;;3.23;1.23;;;;;;;28.94;28.69;101124.72;143733;613;47006;-81
2022/09/19 11:11:46;;;;;;;7.50;1.50;;;;;;;28.96;28.04;101121.63;143745;696;46002;-83
2022/09/19 11:14:42;;;;;;;3.40;1.58;;;;;;;29.02;27.97;101125.91;143733;635;52008;-85
2022/09/19 11:17:46;;;;;;;4.07;1.48;;;;;;;28.99;27.45;101118.25;143738;588;46008;-84
2022/09/19 11:20:49;;;;;;;5.15;3.30;;;;;;;29.08;28.27;101115.53;143737;585;49004;-85
2022/09/19 11:23:58;;;;;;;4.75;2.90;;;;;;;29.07;26.66;101111.97;143725;602;60000;-84
2022/09/19 11:27:05;;;;;;;7.22;2.33;;;;;;;29.05;27.56;101109.50;143734;587;46010;-85
2022/09/19 11:30:18;;;;;;;4.78;1.62;;;;;;;28.83;28.10;101112.31;143733;583;46004;-84
2022/09/19 11:33:21;;;;;;;3.33;1.37;;;;;;;28.46;28.47;101105.94;143737;613;45923;-84
2022/09/19 11:36:26;;;;;;;3.30;1.67;;;;;;;28.46;28.33;101105.94;143722;604;53002;-86
2022/09/19 11:39:30;;;;;;;4.47;1.30;;;;;;;28.64;28.21;101102.19;143734;610;46008;-89
2022/09/19 11:42:22;;;;;;;6.00;2.03;;;;;;;28.65;28.86;101114.06;143736;580;46002;-85
2022/09/19 11:45:14;;;;;;;6.07;1.60;;;;;;;28.66;28.98;101105.47;143729;576;47006;-85
2022/09/19 11:48:39;;;;;;;3.83;1.80;;;;;;;28.78;29.43;101104.13;143739;653;45010;-87
2022/09/19 11:51:57;;;;;;;4.00;1.73;;;;;;;28.78;28.44;101107.69;143738;594;47008;-88
2022/09/19 11:54:59;;;;;;;3.28;2.33;;;;;;;28.75;29.17;101100.03;143726;599;47004;-86
2022/09/19 11:57:56;;;;;;;2.45;1.10;;;;;;;28.65;28.68;101105.78;143727;589;50000;-86
2022/09/19 12:00:25;;;;;;;4.12;1.58;;;;;;;28.50;29.34;101093.16;143735;568;47004;-86
2022/09/19 12:03:56;;;;;;;2.55;1.50;;;;;;;28.42;29.74;101092.75;143738;588;45010;-88
2022/09/19 12:06:53;;;;;;;2.83;1.10;;;;;;;28.62;29.61;101074.06;143737;607;45012;-86
2022/09/19 12:09:44;;;;;;;3.12;1.12;;;;;;;28.74;27.66;101070.78;143731;650;46006;-87
2022/09/19 12:12:15;;;;;;;3.25;1.12;;;;;;;28.79;29.47;101075.34;143735;584;47002;-87
2022/09/19 12:14:50;;;;;;;3.22;1.17;;;;;;;28.81;28.33;101065.59;143736;599;45925;-85
2022/09/19 12:17:26;;;;;;;5.70;1.48;;;;;;;28.74;28.97;101062.47;143735;608;47002;-86
2022/09/19 12:20:23;;;;;;;3.92;1.23;;;;;;;28.58;29.06;101051.75;143736;680;45007;-86
2022/09/19 12:24:52;;;;;;;3.40;1.85;;;;;;;28.43;28.96;101060.41;143735;624;49000;-89
2022/09/19 12:25:53;;;;;;;5.87;1.42;;;;;;;28.37;28.60;101058.91;143735;598;46003;-87
2022/09/19 12:28:22;;;;;;;1.80;0.98;;;;;;;28.45;29.58;101063.66;143730;606;48002;-88
2022/09/19 12:30:59;;;;;;;2.53;1.30;;;;;;;28.53;29.28;101064.88;143732;669;47006;-86
2022/09/19 12:33:39;;;;;;;3.60;1.90;;;;;;;28.55;29.83;101057.91;143739;606;45011;-86
2022/09/19 12:36:30;;;;;;;4.87;1.87;;;;;;;28.57;29.80;101046.53;143738;608;45011;-89
2022/09/19 12:39:27;;;;;;;7.68;1.25;;;;;;;28.66;28.36;101049.38;143735;578;48008;-86
2022/09/19 12:42:08;;;;;;;5.10;1.23;;;;;;;28.74;28.63;101051.41;143738;609;45010;-87
2022/09/19 12:44:56;;;;;;;5.10;1.37;;;;;;;28.85;29.40;101044.50;143735;583;48004;-86